sensor_id;sensor_type;location;lat;lon;timestamp;P1;durP1;ratioP1;P2;durP2;ratioP2
12383;SDS011;6256;63.808;20.336;2023-06-14T00:00:12;4.73;;;3.97;;
12383;SDS011;6256;63.808;20.336;2023-06-14T00:02:39;7.23;;;4.37;;
12383;SDS011;6256;63.808;20.336;2023-06-14T00:05:06;5.40;;;4.10;;
12383;SDS011;6256;63.808;20.336;2023-06-14T00:07:36;5.40;;;3.90;;
12383;SDS011;6256;63.808;20.336;2023-06-14T00:10:07;5.70;;;4.03;;
12383;SDS011;6256;63.808;20.336;2023-06-14T00:12:34;7.23;;;4.10;;
12383;SDS011;6256;63.808;20.336;2023-06-14T00:15:00;5.77;;;3.40;;
12383;SDS011;6256;63.808;20.336;2023-06-14T00:17:26;5.80;;;4.43;;
12383;SDS011;6256;63.808;20.336;2023-06-14T00:19:55;6.37;;;3.90;;
12383;SDS011;6256;63.808;20.336;2023-06-14T00:22:22;5.87;;;4.53;;
12383;SDS011;6256;63.808;20.336;2023-06-14T00:24:49;4.97;;;3.93;;
12383;SDS011;6256;63.808;20.336;2023-06-14T00:27:15;5.00;;;4.20;;
12383;SDS011;6256;63.808;20.336;2023-06-14T00:29:41;6.67;;;4.00;;
12383;SDS011;6256;63.808;20.336;2023-06-14T00:32:07;4.27;;;3.83;;
12383;SDS011;6256;63.808;20.336;2023-06-14T00:34:33;6.70;;;3.80;;
12383;SDS011;6256;63.808;20.336;2023-06-14T00:36:59;6.33;;;4.20;;
12383;SDS011;6256;63.808;20.336;2023-06-14T00:39:25;7.17;;;4.40;;
12383;SDS011;6256;63.808;20.336;2023-06-14T00:41:51;5.87;;;4.20;;
12383;SDS011;6256;63.808;20.336;2023-06-14T00:44:17;5.67;;;4.57;;
12383;SDS011;6256;63.808;20.336;2023-06-14T00:46:44;5.53;;;4.10;;
12383;SDS011;6256;63.808;20.336;2023-06-14T00:49:10;5.00;;;3.87;;
12383;SDS011;6256;63.808;20.336;2023-06-14T00:51:38;5.87;;;3.80;;
12383;SDS011;6256;63.808;20.336;2023-06-14T00:54:04;5.23;;;3.73;;
12383;SDS011;6256;63.808;20.336;2023-06-14T00:56:30;5.53;;;3.93;;
12383;SDS011;6256;63.808;20.336;2023-06-14T00:58:56;5.07;;;3.67;;
12383;SDS011;6256;63.808;20.336;2023-06-14T01:01:22;5.20;;;4.20;;
12383;SDS011;6256;63.808;20.336;2023-06-14T01:03:49;4.83;;;4.00;;
12383;SDS011;6256;63.808;20.336;2023-06-14T01:06:33;4.67;;;3.87;;
12383;SDS011;6256;63.808;20.336;2023-06-14T01:09:20;4.10;;;3.60;;
12383;SDS011;6256;63.808;20.336;2023-06-14T01:12:16;4.20;;;3.33;;
12383;SDS011;6256;63.808;20.336;2023-06-14T01:14:41;7.50;;;3.77;;
12383;SDS011;6256;63.808;20.336;2023-06-14T01:17:07;4.43;;;3.60;;
12383;SDS011;6256;63.808;20.336;2023-06-14T01:19:41;5.20;;;3.60;;
12383;SDS011;6256;63.808;20.336;2023-06-14T01:22:07;5.13;;;3.53;;
12383;SDS011;6256;63.808;20.336;2023-06-14T01:24:34;5.30;;;3.60;;
12383;SDS011;6256;63.808;20.336;2023-06-14T01:27:00;4.77;;;3.63;;
12383;SDS011;6256;63.808;20.336;2023-06-14T01:29:27;5.23;;;3.80;;
12383;SDS011;6256;63.808;20.336;2023-06-14T01:31:58;4.87;;;3.73;;
12383;SDS011;6256;63.808;20.336;2023-06-14T01:34:24;4.93;;;4.07;;
12383;SDS011;6256;63.808;20.336;2023-06-14T01:36:50;5.53;;;3.30;;
12383;SDS011;6256;63.808;20.336;2023-06-14T01:39:19;8.53;;;3.73;;
12383;SDS011;6256;63.808;20.336;2023-06-14T01:41:46;6.27;;;3.83;;
12383;SDS011;6256;63.808;20.336;2023-06-14T01:44:14;6.17;;;3.47;;
12383;SDS011;6256;63.808;20.336;2023-06-14T01:46:41;5.00;;;3.33;;
12383;SDS011;6256;63.808;20.336;2023-06-14T01:49:08;6.10;;;3.33;;
12383;SDS011;6256;63.808;20.336;2023-06-14T01:51:35;5.80;;;3.67;;
12383;SDS011;6256;63.808;20.336;2023-06-14T01:54:01;4.27;;;3.50;;
12383;SDS011;6256;63.808;20.336;2023-06-14T01:56:26;5.17;;;3.83;;
12383;SDS011;6256;63.808;20.336;2023-06-14T01:58:52;3.97;;;3.03;;
12383;SDS011;6256;63.808;20.336;2023-06-14T02:01:19;4.53;;;3.30;;
12383;SDS011;6256;63.808;20.336;2023-06-14T02:03:46;6.07;;;3.67;;
12383;SDS011;6256;63.808;20.336;2023-06-14T02:06:13;6.20;;;3.97;;
12383;SDS011;6256;63.808;20.336;2023-06-14T02:08:40;3.30;;;3.00;;
12383;SDS011;6256;63.808;20.336;2023-06-14T02:11:07;5.30;;;3.77;;
12383;SDS011;6256;63.808;20.336;2023-06-14T02:13:33;5.17;;;3.33;;
12383;SDS011;6256;63.808;20.336;2023-06-14T02:15:59;5.20;;;3.43;;
12383;SDS011;6256;63.808;20.336;2023-06-14T02:18:25;7.63;;;3.50;;
12383;SDS011;6256;63.808;20.336;2023-06-14T02:20:52;4.40;;;3.27;;
12383;SDS011;6256;63.808;20.336;2023-06-14T02:23:18;5.33;;;3.33;;
12383;SDS011;6256;63.808;20.336;2023-06-14T02:25:43;4.70;;;3.07;;
12383;SDS011;6256;63.808;20.336;2023-06-14T02:28:11;5.80;;;3.27;;
12383;SDS011;6256;63.808;20.336;2023-06-14T02:30:36;4.83;;;3.10;;
12383;SDS011;6256;63.808;20.336;2023-06-14T02:33:02;4.70;;;3.03;;
12383;SDS011;6256;63.808;20.336;2023-06-14T02:35:29;5.57;;;3.10;;
12383;SDS011;6256;63.808;20.336;2023-06-14T02:37:57;5.23;;;3.10;;
12383;SDS011;6256;63.808;20.336;2023-06-14T02:40:22;3.67;;;2.73;;
12383;SDS011;6256;63.808;20.336;2023-06-14T02:42:48;4.97;;;3.40;;
12383;SDS011;6256;63.808;20.336;2023-06-14T02:45:14;6.27;;;3.30;;
12383;SDS011;6256;63.808;20.336;2023-06-14T02:47:40;3.10;;;2.53;;
12383;SDS011;6256;63.808;20.336;2023-06-14T02:50:06;4.80;;;3.00;;
12383;SDS011;6256;63.808;20.336;2023-06-14T02:52:33;8.13;;;3.40;;
12383;SDS011;6256;63.808;20.336;2023-06-14T02:54:58;3.80;;;3.33;;
12383;SDS011;6256;63.808;20.336;2023-06-14T02:57:24;5.93;;;3.47;;
12383;SDS011;6256;63.808;20.336;2023-06-14T02:59:50;4.60;;;3.07;;
12383;SDS011;6256;63.808;20.336;2023-06-14T03:02:16;5.67;;;2.90;;
12383;SDS011;6256;63.808;20.336;2023-06-14T03:04:42;5.47;;;2.83;;
12383;SDS011;6256;63.808;20.336;2023-06-14T03:07:08;5.87;;;3.13;;
12383;SDS011;6256;63.808;20.336;2023-06-14T03:09:37;6.57;;;2.80;;
12383;SDS011;6256;63.808;20.336;2023-06-14T03:12:04;4.87;;;2.70;;
12383;SDS011;6256;63.808;20.336;2023-06-14T03:14:32;5.67;;;3.40;;
12383;SDS011;6256;63.808;20.336;2023-06-14T03:16:58;3.73;;;2.50;;
12383;SDS011;6256;63.808;20.336;2023-06-14T03:19:25;4.77;;;2.90;;
12383;SDS011;6256;63.808;20.336;2023-06-14T03:21:51;3.47;;;3.13;;
12383;SDS011;6256;63.808;20.336;2023-06-14T03:24:18;5.80;;;3.20;;
12383;SDS011;6256;63.808;20.336;2023-06-14T03:26:44;5.37;;;3.23;;
12383;SDS011;6256;63.808;20.336;2023-06-14T03:29:10;4.57;;;3.10;;
12383;SDS011;6256;63.808;20.336;2023-06-14T03:31:36;3.63;;;2.83;;
12383;SDS011;6256;63.808;20.336;2023-06-14T03:34:02;5.47;;;2.93;;
12383;SDS011;6256;63.808;20.336;2023-06-14T03:36:31;4.23;;;2.70;;
12383;SDS011;6256;63.808;20.336;2023-06-14T03:39:01;7.17;;;3.10;;
12383;SDS011;6256;63.808;20.336;2023-06-14T03:41:26;5.83;;;3.07;;
12383;SDS011;6256;63.808;20.336;2023-06-14T03:43:52;3.70;;;3.07;;
12383;SDS011;6256;63.808;20.336;2023-06-14T03:46:18;6.77;;;3.07;;
12383;SDS011;6256;63.808;20.336;2023-06-14T03:48:44;4.80;;;3.20;;
12383;SDS011;6256;63.808;20.336;2023-06-14T03:51:10;4.77;;;3.07;;
12383;SDS011;6256;63.808;20.336;2023-06-14T03:53:35;5.23;;;2.80;;
12383;SDS011;6256;63.808;20.336;2023-06-14T03:56:01;3.40;;;2.80;;
12383;SDS011;6256;63.808;20.336;2023-06-14T03:58:27;5.20;;;2.80;;
12383;SDS011;6256;63.808;20.336;2023-06-14T04:00:53;5.27;;;3.20;;
12383;SDS011;6256;63.808;20.336;2023-06-14T04:03:18;4.40;;;2.93;;
12383;SDS011;6256;63.808;20.336;2023-06-14T04:05:44;4.27;;;3.00;;
12383;SDS011;6256;63.808;20.336;2023-06-14T04:08:14;6.27;;;3.10;;
12383;SDS011;6256;63.808;20.336;2023-06-14T04:10:41;5.67;;;3.60;;
12383;SDS011;6256;63.808;20.336;2023-06-14T04:13:06;6.03;;;3.20;;
12383;SDS011;6256;63.808;20.336;2023-06-14T04:15:32;8.03;;;3.10;;
12383;SDS011;6256;63.808;20.336;2023-06-14T04:17:58;5.13;;;2.53;;
12383;SDS011;6256;63.808;20.336;2023-06-14T04:20:25;4.60;;;2.87;;
12383;SDS011;6256;63.808;20.336;2023-06-14T04:22:51;6.07;;;2.87;;
12383;SDS011;6256;63.808;20.336;2023-06-14T04:25:17;4.67;;;3.30;;
12383;SDS011;6256;63.808;20.336;2023-06-14T04:27:43;8.47;;;3.27;;
12383;SDS011;6256;63.808;20.336;2023-06-14T04:30:09;5.77;;;3.03;;
12383;SDS011;6256;63.808;20.336;2023-06-14T04:32:35;3.83;;;2.53;;
12383;SDS011;6256;63.808;20.336;2023-06-14T04:35:04;7.17;;;2.90;;
12383;SDS011;6256;63.808;20.336;2023-06-14T04:37:33;4.97;;;2.53;;
12383;SDS011;6256;63.808;20.336;2023-06-14T04:39:59;4.75;;;2.75;;
12383;SDS011;6256;63.808;20.336;2023-06-14T04:42:25;5.60;;;3.72;;
12383;SDS011;6256;63.808;20.336;2023-06-14T04:44:56;8.83;;;3.10;;
12383;SDS011;6256;63.808;20.336;2023-06-14T04:47:22;4.72;;;2.45;;
12383;SDS011;6256;63.808;20.336;2023-06-14T04:49:54;6.15;;;3.22;;
12383;SDS011;6256;63.808;20.336;2023-06-14T04:52:20;6.50;;;2.92;;
12383;SDS011;6256;63.808;20.336;2023-06-14T04:54:46;6.13;;;3.17;;
12383;SDS011;6256;63.808;20.336;2023-06-14T04:57:13;4.63;;;3.08;;
12383;SDS011;6256;63.808;20.336;2023-06-14T04:59:42;3.78;;;3.05;;
12383;SDS011;6256;63.808;20.336;2023-06-14T05:02:09;4.85;;;2.60;;
12383;SDS011;6256;63.808;20.336;2023-06-14T05:04:35;5.80;;;3.05;;
12383;SDS011;6256;63.808;20.336;2023-06-14T05:07:07;4.85;;;2.75;;
12383;SDS011;6256;63.808;20.336;2023-06-14T05:09:34;4.72;;;2.92;;
12383;SDS011;6256;63.808;20.336;2023-06-14T05:12:00;6.10;;;2.85;;
12383;SDS011;6256;63.808;20.336;2023-06-14T05:14:26;5.18;;;2.95;;
12383;SDS011;6256;63.808;20.336;2023-06-14T05:16:52;3.88;;;2.80;;
12383;SDS011;6256;63.808;20.336;2023-06-14T05:19:18;4.85;;;2.83;;
12383;SDS011;6256;63.808;20.336;2023-06-14T05:21:45;7.25;;;2.75;;
12383;SDS011;6256;63.808;20.336;2023-06-14T05:24:12;3.63;;;2.67;;
12383;SDS011;6256;63.808;20.336;2023-06-14T05:26:39;5.25;;;2.88;;
12383;SDS011;6256;63.808;20.336;2023-06-14T05:29:05;3.70;;;2.70;;
12383;SDS011;6256;63.808;20.336;2023-06-14T05:31:31;6.20;;;2.97;;
12383;SDS011;6256;63.808;20.336;2023-06-14T05:33:57;5.53;;;3.20;;
12383;SDS011;6256;63.808;20.336;2023-06-14T05:36:23;6.35;;;3.38;;
12383;SDS011;6256;63.808;20.336;2023-06-14T05:38:49;5.97;;;2.95;;
12383;SDS011;6256;63.808;20.336;2023-06-14T05:41:23;4.78;;;2.88;;
12383;SDS011;6256;63.808;20.336;2023-06-14T05:43:50;4.63;;;2.58;;
12383;SDS011;6256;63.808;20.336;2023-06-14T05:46:16;8.32;;;2.80;;
12383;SDS011;6256;63.808;20.336;2023-06-14T05:48:47;4.63;;;3.00;;
12383;SDS011;6256;63.808;20.336;2023-06-14T05:51:13;7.15;;;2.92;;
12383;SDS011;6256;63.808;20.336;2023-06-14T05:53:39;4.22;;;2.55;;
12383;SDS011;6256;63.808;20.336;2023-06-14T05:56:05;5.18;;;2.95;;
12383;SDS011;6256;63.808;20.336;2023-06-14T05:58:31;5.93;;;3.20;;
12383;SDS011;6256;63.808;20.336;2023-06-14T06:00:56;5.32;;;2.83;;
12383;SDS011;6256;63.808;20.336;2023-06-14T06:03:22;5.05;;;2.92;;
12383;SDS011;6256;63.808;20.336;2023-06-14T06:05:48;3.83;;;2.78;;
12383;SDS011;6256;63.808;20.336;2023-06-14T06:08:14;5.22;;;2.95;;
12383;SDS011;6256;63.808;20.336;2023-06-14T06:10:41;3.67;;;2.45;;
12383;SDS011;6256;63.808;20.336;2023-06-14T06:13:07;3.75;;;2.63;;
12383;SDS011;6256;63.808;20.336;2023-06-14T06:15:33;5.80;;;2.83;;
12383;SDS011;6256;63.808;20.336;2023-06-14T06:17:59;3.35;;;2.38;;
12383;SDS011;6256;63.808;20.336;2023-06-14T06:20:25;4.72;;;2.50;;
12383;SDS011;6256;63.808;20.336;2023-06-14T06:22:55;5.47;;;2.58;;
12383;SDS011;6256;63.808;20.336;2023-06-14T06:25:20;6.35;;;2.60;;
12383;SDS011;6256;63.808;20.336;2023-06-14T06:27:47;3.65;;;2.45;;
12383;SDS011;6256;63.808;20.336;2023-06-14T06:30:13;4.35;;;2.85;;
12383;SDS011;6256;63.808;20.336;2023-06-14T06:32:38;3.30;;;2.38;;
12383;SDS011;6256;63.808;20.336;2023-06-14T06:35:04;6.43;;;2.55;;
12383;SDS011;6256;63.808;20.336;2023-06-14T06:37:32;3.90;;;2.60;;
12383;SDS011;6256;63.808;20.336;2023-06-14T06:39:57;3.75;;;1.98;;
12383;SDS011;6256;63.808;20.336;2023-06-14T06:42:23;3.10;;;2.63;;
12383;SDS011;6256;63.808;20.336;2023-06-14T06:44:49;4.95;;;2.42;;
12383;SDS011;6256;63.808;20.336;2023-06-14T06:47:15;5.82;;;2.45;;
12383;SDS011;6256;63.808;20.336;2023-06-14T06:49:41;3.70;;;2.33;;
12383;SDS011;6256;63.808;20.336;2023-06-14T06:52:06;3.33;;;2.35;;
12383;SDS011;6256;63.808;20.336;2023-06-14T06:54:33;4.00;;;1.90;;
12383;SDS011;6256;63.808;20.336;2023-06-14T06:56:59;2.83;;;2.00;;
12383;SDS011;6256;63.808;20.336;2023-06-14T06:59:26;3.28;;;1.98;;
12383;SDS011;6256;63.808;20.336;2023-06-14T07:01:52;2.88;;;1.70;;
12383;SDS011;6256;63.808;20.336;2023-06-14T07:04:18;4.85;;;2.20;;
12383;SDS011;6256;63.808;20.336;2023-06-14T07:06:44;4.82;;;2.15;;
12383;SDS011;6256;63.808;20.336;2023-06-14T07:09:11;4.45;;;2.10;;
12383;SDS011;6256;63.808;20.336;2023-06-14T07:11:39;4.55;;;2.00;;
12383;SDS011;6256;63.808;20.336;2023-06-14T07:14:05;3.97;;;2.25;;
12383;SDS011;6256;63.808;20.336;2023-06-14T07:16:31;3.53;;;2.38;;
12383;SDS011;6256;63.808;20.336;2023-06-14T07:18:56;4.25;;;2.25;;
12383;SDS011;6256;63.808;20.336;2023-06-14T07:21:22;4.60;;;2.25;;
12383;SDS011;6256;63.808;20.336;2023-06-14T07:23:48;2.25;;;1.98;;
12383;SDS011;6256;63.808;20.336;2023-06-14T07:26:14;3.97;;;2.25;;
12383;SDS011;6256;63.808;20.336;2023-06-14T07:28:39;3.13;;;2.10;;
12383;SDS011;6256;63.808;20.336;2023-06-14T07:31:05;3.22;;;2.20;;
12383;SDS011;6256;63.808;20.336;2023-06-14T07:33:30;3.95;;;2.03;;
12383;SDS011;6256;63.808;20.336;2023-06-14T07:35:56;6.00;;;2.35;;
12383;SDS011;6256;63.808;20.336;2023-06-14T07:38:22;4.22;;;2.20;;
12383;SDS011;6256;63.808;20.336;2023-06-14T07:40:47;4.47;;;2.28;;
12383;SDS011;6256;63.808;20.336;2023-06-14T07:43:13;4.55;;;2.33;;
12383;SDS011;6256;63.808;20.336;2023-06-14T07:45:39;6.22;;;2.58;;
12383;SDS011;6256;63.808;20.336;2023-06-14T07:48:05;3.88;;;2.28;;
12383;SDS011;6256;63.808;20.336;2023-06-14T07:50:30;2.92;;;2.10;;
12383;SDS011;6256;63.808;20.336;2023-06-14T07:52:56;3.35;;;2.17;;
12383;SDS011;6256;63.808;20.336;2023-06-14T07:55:21;4.55;;;2.60;;
12383;SDS011;6256;63.808;20.336;2023-06-14T07:57:47;3.33;;;2.35;;
12383;SDS011;6256;63.808;20.336;2023-06-14T08:00:13;3.95;;;2.50;;
12383;SDS011;6256;63.808;20.336;2023-06-14T08:02:40;4.60;;;2.33;;
12383;SDS011;6256;63.808;20.336;2023-06-14T08:05:07;4.85;;;3.00;;
12383;SDS011;6256;63.808;20.336;2023-06-14T08:07:34;3.40;;;2.08;;
12383;SDS011;6256;63.808;20.336;2023-06-14T08:10:00;2.95;;;2.58;;
12383;SDS011;6256;63.808;20.336;2023-06-14T08:12:26;2.90;;;2.60;;
12383;SDS011;6256;63.808;20.336;2023-06-14T08:14:52;2.92;;;2.40;;
12383;SDS011;6256;63.808;20.336;2023-06-14T08:17:17;4.20;;;2.28;;
12383;SDS011;6256;63.808;20.336;2023-06-14T08:19:43;4.45;;;2.42;;
12383;SDS011;6256;63.808;20.336;2023-06-14T08:22:09;5.78;;;2.53;;
12383;SDS011;6256;63.808;20.336;2023-06-14T08:24:37;3.83;;;2.65;;
12383;SDS011;6256;63.808;20.336;2023-06-14T08:27:04;6.10;;;2.65;;
12383;SDS011;6256;63.808;20.336;2023-06-14T08:29:30;3.28;;;2.30;;
12383;SDS011;6256;63.808;20.336;2023-06-14T08:31:56;3.97;;;2.67;;
12383;SDS011;6256;63.808;20.336;2023-06-14T08:34:22;5.18;;;2.55;;
12383;SDS011;6256;63.808;20.336;2023-06-14T08:36:50;3.42;;;3.10;;
12383;SDS011;6256;63.808;20.336;2023-06-14T08:39:16;4.55;;;2.85;;
12383;SDS011;6256;63.808;20.336;2023-06-14T08:41:45;4.18;;;2.22;;
12383;SDS011;6256;63.808;20.336;2023-06-14T08:44:16;4.13;;;2.60;;
12383;SDS011;6256;63.808;20.336;2023-06-14T08:46:42;2.90;;;2.15;;
12383;SDS011;6256;63.808;20.336;2023-06-14T08:49:08;4.88;;;2.75;;
12383;SDS011;6256;63.808;20.336;2023-06-14T08:51:37;2.80;;;2.42;;
12383;SDS011;6256;63.808;20.336;2023-06-14T08:54:05;2.83;;;2.58;;
12383;SDS011;6256;63.808;20.336;2023-06-14T08:56:31;2.72;;;2.50;;
12383;SDS011;6256;63.808;20.336;2023-06-14T08:58:59;3.83;;;2.60;;
12383;SDS011;6256;63.808;20.336;2023-06-14T09:01:30;3.65;;;2.50;;
12383;SDS011;6256;63.808;20.336;2023-06-14T09:03:59;5.28;;;2.92;;
12383;SDS011;6256;63.808;20.336;2023-06-14T09:06:25;3.97;;;3.55;;
12383;SDS011;6256;63.808;20.336;2023-06-14T09:08:53;4.28;;;3.05;;
12383;SDS011;6256;63.808;20.336;2023-06-14T09:11:21;3.88;;;2.67;;
12383;SDS011;6256;63.808;20.336;2023-06-14T09:13:47;4.13;;;3.25;;
12383;SDS011;6256;63.808;20.336;2023-06-14T09:16:13;6.28;;;3.75;;
12383;SDS011;6256;63.808;20.336;2023-06-14T09:18:43;3.90;;;3.17;;
12383;SDS011;6256;63.808;20.336;2023-06-14T09:21:13;5.15;;;3.67;;
12383;SDS011;6256;63.808;20.336;2023-06-14T09:23:41;5.30;;;4.03;;
12383;SDS011;6256;63.808;20.336;2023-06-14T09:26:11;6.10;;;3.63;;
12383;SDS011;6256;63.808;20.336;2023-06-14T09:28:45;4.20;;;3.45;;
12383;SDS011;6256;63.808;20.336;2023-06-14T09:31:18;5.38;;;4.45;;
12383;SDS011;6256;63.808;20.336;2023-06-14T09:33:48;4.05;;;3.20;;
12383;SDS011;6256;63.808;20.336;2023-06-14T09:36:15;5.18;;;3.70;;
12383;SDS011;6256;63.808;20.336;2023-06-14T09:39:00;5.95;;;3.40;;
12383;SDS011;6256;63.808;20.336;2023-06-14T09:41:37;5.72;;;3.88;;
12383;SDS011;6256;63.808;20.336;2023-06-14T09:44:05;6.97;;;3.17;;
12383;SDS011;6256;63.808;20.336;2023-06-14T09:46:32;5.38;;;3.17;;
12383;SDS011;6256;63.808;20.336;2023-06-14T09:48:59;7.57;;;3.35;;
12383;SDS011;6256;63.808;20.336;2023-06-14T09:51:26;4.47;;;3.50;;
12383;SDS011;6256;63.808;20.336;2023-06-14T09:53:53;6.20;;;3.72;;
12383;SDS011;6256;63.808;20.336;2023-06-14T09:56:28;3.70;;;3.40;;
12383;SDS011;6256;63.808;20.336;2023-06-14T09:58:58;3.70;;;3.20;;
12383;SDS011;6256;63.808;20.336;2023-06-14T10:01:25;4.78;;;3.33;;
12383;SDS011;6256;63.808;20.336;2023-06-14T10:03:55;3.13;;;2.70;;
12383;SDS011;6256;63.808;20.336;2023-06-14T10:06:25;4.10;;;2.90;;
12383;SDS011;6256;63.808;20.336;2023-06-14T10:08:54;3.83;;;2.92;;
12383;SDS011;6256;63.808;20.336;2023-06-14T10:11:25;5.63;;;2.92;;
12383;SDS011;6256;63.808;20.336;2023-06-14T10:13:51;3.40;;;3.10;;
12383;SDS011;6256;63.808;20.336;2023-06-14T10:19:00;3.15;;;2.65;;
12383;SDS011;6256;63.808;20.336;2023-06-14T10:24:15;3.95;;;2.70;;
12383;SDS011;6256;63.808;20.336;2023-06-14T10:26:50;5.07;;;2.72;;
12383;SDS011;6256;63.808;20.336;2023-06-14T10:29:17;2.78;;;2.45;;
12383;SDS011;6256;63.808;20.336;2023-06-14T10:31:47;3.13;;;2.55;;
12383;SDS011;6256;63.808;20.336;2023-06-14T10:34:24;4.35;;;2.72;;
12383;SDS011;6256;63.808;20.336;2023-06-14T10:37:05;2.78;;;2.38;;
12383;SDS011;6256;63.808;20.336;2023-06-14T10:39:42;3.03;;;2.67;;
12383;SDS011;6256;63.808;20.336;2023-06-14T10:42:12;4.53;;;2.47;;
12383;SDS011;6256;63.808;20.336;2023-06-14T10:44:39;5.15;;;2.70;;
12383;SDS011;6256;63.808;20.336;2023-06-14T10:47:06;4.40;;;2.90;;
12383;SDS011;6256;63.808;20.336;2023-06-14T10:49:52;5.45;;;2.90;;
12383;SDS011;6256;63.808;20.336;2023-06-14T10:52:22;4.57;;;2.70;;
12383;SDS011;6256;63.808;20.336;2023-06-14T10:57:48;4.45;;;2.75;;
12383;SDS011;6256;63.808;20.336;2023-06-14T11:00:23;4.55;;;2.90;;
12383;SDS011;6256;63.808;20.336;2023-06-14T11:03:04;3.75;;;2.80;;
12383;SDS011;6256;63.808;20.336;2023-06-14T11:05:55;4.50;;;2.70;;
12383;SDS011;6256;63.808;20.336;2023-06-14T11:11:15;4.10;;;2.75;;
12383;SDS011;6256;63.808;20.336;2023-06-14T11:13:44;3.40;;;2.70;;
12383;SDS011;6256;63.808;20.336;2023-06-14T11:16:14;5.00;;;2.67;;
12383;SDS011;6256;63.808;20.336;2023-06-14T11:18:40;4.90;;;2.90;;
12383;SDS011;6256;63.808;20.336;2023-06-14T11:21:06;3.10;;;2.78;;
12383;SDS011;6256;63.808;20.336;2023-06-14T11:23:33;6.85;;;2.58;;
12383;SDS011;6256;63.808;20.336;2023-06-14T11:26:00;6.63;;;2.97;;
12383;SDS011;6256;63.808;20.336;2023-06-14T11:28:35;4.28;;;3.08;;
12383;SDS011;6256;63.808;20.336;2023-06-14T11:31:04;4.90;;;2.72;;
12383;SDS011;6256;63.808;20.336;2023-06-14T11:33:30;5.10;;;3.20;;
12383;SDS011;6256;63.808;20.336;2023-06-14T11:35:56;4.00;;;2.90;;
12383;SDS011;6256;63.808;20.336;2023-06-14T11:38:21;4.55;;;2.80;;
12383;SDS011;6256;63.808;20.336;2023-06-14T11:40:47;4.22;;;2.78;;
12383;SDS011;6256;63.808;20.336;2023-06-14T11:43:13;4.28;;;3.17;;
12383;SDS011;6256;63.808;20.336;2023-06-14T11:45:39;4.65;;;3.22;;
12383;SDS011;6256;63.808;20.336;2023-06-14T11:48:06;4.78;;;2.95;;
12383;SDS011;6256;63.808;20.336;2023-06-14T11:50:31;3.20;;;2.47;;
12383;SDS011;6256;63.808;20.336;2023-06-14T11:53:01;3.60;;;2.55;;
12383;SDS011;6256;63.808;20.336;2023-06-14T11:55:35;3.50;;;2.85;;
12383;SDS011;6256;63.808;20.336;2023-06-14T11:58:02;3.72;;;2.60;;
12383;SDS011;6256;63.808;20.336;2023-06-14T12:00:28;2.70;;;2.40;;
12383;SDS011;6256;63.808;20.336;2023-06-14T12:02:54;3.58;;;2.40;;
12383;SDS011;6256;63.808;20.336;2023-06-14T12:05:21;2.97;;;2.58;;
12383;SDS011;6256;63.808;20.336;2023-06-14T12:07:48;4.35;;;3.22;;
12383;SDS011;6256;63.808;20.336;2023-06-14T12:10:15;3.65;;;2.70;;
12383;SDS011;6256;63.808;20.336;2023-06-14T12:12:41;3.92;;;2.90;;
12383;SDS011;6256;63.808;20.336;2023-06-14T12:15:08;4.15;;;2.67;;
12383;SDS011;6256;63.808;20.336;2023-06-14T12:17:37;3.78;;;3.15;;
12383;SDS011;6256;63.808;20.336;2023-06-14T12:20:08;3.15;;;2.85;;
12383;SDS011;6256;63.808;20.336;2023-06-14T12:22:54;6.10;;;2.55;;
12383;SDS011;6256;63.808;20.336;2023-06-14T12:28:05;3.10;;;2.55;;
12383;SDS011;6256;63.808;20.336;2023-06-14T12:30:31;4.00;;;2.58;;
12383;SDS011;6256;63.808;20.336;2023-06-14T12:32:57;3.13;;;2.83;;
12383;SDS011;6256;63.808;20.336;2023-06-14T12:35:26;4.57;;;3.08;;
12383;SDS011;6256;63.808;20.336;2023-06-14T12:37:52;4.35;;;2.80;;
12383;SDS011;6256;63.808;20.336;2023-06-14T12:40:19;3.40;;;3.10;;
12383;SDS011;6256;63.808;20.336;2023-06-14T12:42:45;4.10;;;3.22;;
12383;SDS011;6256;63.808;20.336;2023-06-14T12:45:13;4.78;;;2.83;;
12383;SDS011;6256;63.808;20.336;2023-06-14T12:47:39;3.20;;;2.90;;
12383;SDS011;6256;63.808;20.336;2023-06-14T12:50:05;3.88;;;2.83;;
12383;SDS011;6256;63.808;20.336;2023-06-14T12:52:31;2.80;;;2.50;;
12383;SDS011;6256;63.808;20.336;2023-06-14T12:55:01;3.78;;;2.92;;
12383;SDS011;6256;63.808;20.336;2023-06-14T12:57:28;3.40;;;2.80;;
12383;SDS011;6256;63.808;20.336;2023-06-14T12:59:54;4.03;;;3.35;;
12383;SDS011;6256;63.808;20.336;2023-06-14T13:02:20;2.90;;;2.60;;
12383;SDS011;6256;63.808;20.336;2023-06-14T13:04:47;3.10;;;2.80;;
12383;SDS011;6256;63.808;20.336;2023-06-14T13:07:13;3.20;;;2.75;;
12383;SDS011;6256;63.808;20.336;2023-06-14T13:09:40;4.38;;;2.55;;
12383;SDS011;6256;63.808;20.336;2023-06-14T13:12:06;6.72;;;2.85;;
12383;SDS011;6256;63.808;20.336;2023-06-14T13:14:33;3.78;;;3.03;;
12383;SDS011;6256;63.808;20.336;2023-06-14T13:16:58;2.85;;;2.53;;
12383;SDS011;6256;63.808;20.336;2023-06-14T13:19:25;3.17;;;2.88;;
12383;SDS011;6256;63.808;20.336;2023-06-14T13:21:50;3.80;;;2.72;;
12383;SDS011;6256;63.808;20.336;2023-06-14T13:24:16;3.22;;;2.65;;
12383;SDS011;6256;63.808;20.336;2023-06-14T13:26:42;3.03;;;2.70;;
12383;SDS011;6256;63.808;20.336;2023-06-14T13:29:08;4.85;;;2.83;;
12383;SDS011;6256;63.808;20.336;2023-06-14T13:31:33;4.30;;;2.90;;
12383;SDS011;6256;63.808;20.336;2023-06-14T13:33:59;3.10;;;2.80;;
12383;SDS011;6256;63.808;20.336;2023-06-14T13:36:25;3.95;;;2.65;;
12383;SDS011;6256;63.808;20.336;2023-06-14T13:38:51;4.65;;;2.80;;
12383;SDS011;6256;63.808;20.336;2023-06-14T13:41:18;4.60;;;3.05;;
12383;SDS011;6256;63.808;20.336;2023-06-14T13:43:43;3.45;;;2.80;;
12383;SDS011;6256;63.808;20.336;2023-06-14T13:46:09;3.60;;;2.53;;
12383;SDS011;6256;63.808;20.336;2023-06-14T13:48:34;3.20;;;2.85;;
12383;SDS011;6256;63.808;20.336;2023-06-14T13:51:00;4.40;;;3.10;;
12383;SDS011;6256;63.808;20.336;2023-06-14T13:53:26;3.75;;;2.78;;
12383;SDS011;6256;63.808;20.336;2023-06-14T13:55:52;4.63;;;2.88;;
12383;SDS011;6256;63.808;20.336;2023-06-14T13:58:17;3.42;;;2.63;;
12383;SDS011;6256;63.808;20.336;2023-06-14T14:00:44;4.45;;;3.08;;
12383;SDS011;6256;63.808;20.336;2023-06-14T14:03:10;5.78;;;2.83;;
12383;SDS011;6256;63.808;20.336;2023-06-14T14:05:36;6.20;;;2.45;;
12383;SDS011;6256;63.808;20.336;2023-06-14T14:08:02;5.15;;;2.83;;
12383;SDS011;6256;63.808;20.336;2023-06-14T14:10:29;5.03;;;2.78;;
12383;SDS011;6256;63.808;20.336;2023-06-14T14:12:54;3.95;;;3.33;;
12383;SDS011;6256;63.808;20.336;2023-06-14T14:15:20;3.42;;;2.80;;
12383;SDS011;6256;63.808;20.336;2023-06-14T14:17:46;4.88;;;2.92;;
12383;SDS011;6256;63.808;20.336;2023-06-14T14:20:12;3.72;;;2.97;;
12383;SDS011;6256;63.808;20.336;2023-06-14T14:22:40;3.42;;;2.72;;
12383;SDS011;6256;63.808;20.336;2023-06-14T14:25:06;3.45;;;2.60;;
12383;SDS011;6256;63.808;20.336;2023-06-14T14:27:32;3.97;;;2.92;;
12383;SDS011;6256;63.808;20.336;2023-06-14T14:29:58;3.58;;;2.80;;
12383;SDS011;6256;63.808;20.336;2023-06-14T14:32:24;4.22;;;2.75;;
12383;SDS011;6256;63.808;20.336;2023-06-14T14:34:50;3.33;;;2.35;;
12383;SDS011;6256;63.808;20.336;2023-06-14T14:37:16;3.00;;;2.50;;
12383;SDS011;6256;63.808;20.336;2023-06-14T14:39:41;2.65;;;2.33;;
12383;SDS011;6256;63.808;20.336;2023-06-14T14:42:09;4.13;;;2.50;;
12383;SDS011;6256;63.808;20.336;2023-06-14T14:44:37;3.75;;;2.40;;
12383;SDS011;6256;63.808;20.336;2023-06-14T14:47:03;4.07;;;2.63;;
12383;SDS011;6256;63.808;20.336;2023-06-14T14:49:29;3.15;;;2.85;;
12383;SDS011;6256;63.808;20.336;2023-06-14T14:51:56;3.72;;;2.72;;
12383;SDS011;6256;63.808;20.336;2023-06-14T14:54:21;4.45;;;3.05;;
12383;SDS011;6256;63.808;20.336;2023-06-14T14:56:48;3.47;;;2.92;;
12383;SDS011;6256;63.808;20.336;2023-06-14T14:59:14;3.67;;;3.00;;
12383;SDS011;6256;63.808;20.336;2023-06-14T15:01:39;7.60;;;2.65;;